createdAt,value
2019-02-06T00:04:04.636Z,87.53
2019-02-06T00:10:07.067Z,95.50
2019-02-06T00:16:09.374Z,96.17
2019-02-06T00:22:11.660Z,88.85
2019-02-06T00:28:13.797Z,86.87
2019-02-06T00:34:16.010Z,99.40
2019-02-06T00:40:21.380Z,93.05
2019-02-06T00:46:23.586Z,93.40
2019-02-06T00:52:25.760Z,81.02
2019-02-06T00:58:28.519Z,81.15
2019-02-06T01:04:30.894Z,86.90
2019-02-06T01:10:33.177Z,92.08
2019-02-06T01:16:35.511Z,83.22
2019-02-06T01:22:38.172Z,87.27
2019-02-06T01:28:41.408Z,90.55
2019-02-06T01:34:43.833Z,83.55
2019-02-06T01:40:46.041Z,86.50
2019-02-06T01:46:48.231Z,83.67
2019-02-06T01:52:50.512Z,85.42
2019-02-06T01:58:54.171Z,84.17
2019-02-06T02:04:56.327Z,80.92
2019-02-06T02:10:58.490Z,79.25
2019-02-06T02:17:01.752Z,83.90
2019-02-06T02:23:04.187Z,83.45
2019-02-06T02:29:06.711Z,79.62
2019-02-06T02:35:09.144Z,77.10
2019-02-06T02:41:11.299Z,78.20
2019-02-06T02:47:13.562Z,77.08
2019-02-06T02:53:15.751Z,68.78
2019-02-06T02:59:18.782Z,79.75
2019-02-06T03:05:22.888Z,81.53
2019-02-06T03:11:25.210Z,81.37
2019-02-06T03:17:30.351Z,87.08
2019-02-06T03:23:32.882Z,96.87
2019-02-06T03:29:35.015Z,95.53
2019-02-06T03:35:37.286Z,94.90
2019-02-06T03:41:40.660Z,103.95
2019-02-06T03:47:44.238Z,98.42
2019-02-06T03:53:46.470Z,100.55
2019-02-06T03:59:48.679Z,98.85
2019-02-06T04:05:52.243Z,96.75
2019-02-06T04:11:54.544Z,86.97
2019-02-06T04:17:56.717Z,82.82
2019-02-06T04:23:58.849Z,77.10
2019-02-06T04:30:01.023Z,72.40
2019-02-06T04:36:03.839Z,77.00
2019-02-06T04:42:06.104Z,87.42
2019-02-06T04:48:08.704Z,82.05
2019-02-06T04:54:11.029Z,80.30
2019-02-06T05:00:19.172Z,89.05
2019-02-06T05:06:23.358Z,91.53
2019-02-06T05:12:25.519Z,89.07
2019-02-06T05:18:28.043Z,85.00
2019-02-06T05:24:30.239Z,78.45
2019-02-06T05:30:32.843Z,81.85
2019-02-06T05:36:34.981Z,93.42
2019-02-06T05:42:37.267Z,85.60
2019-02-06T05:48:39.761Z,82.00
2019-02-06T05:54:43.164Z,78.45
2019-02-06T06:00:46.767Z,75.40
2019-02-06T06:06:50.987Z,85.95
2019-02-06T06:12:54.299Z,79.55
2019-02-06T06:18:56.404Z,80.80
2019-02-06T06:24:58.820Z,90.50
2019-02-06T06:31:01.063Z,97.60
2019-02-06T06:37:03.366Z,96.75
2019-02-06T06:43:05.646Z,101.45
2019-02-06T06:49:08.105Z,96.75
2019-02-06T06:55:11.012Z,98.65
2019-02-06T07:01:13.572Z,87.82
2019-02-06T07:07:16.027Z,84.58
2019-02-06T07:13:18.835Z,99.42
2019-02-06T07:19:21.062Z,87.20
2019-02-06T07:25:24.879Z,96.90
2019-02-06T07:31:28.268Z,83.03
2019-02-06T07:37:30.474Z,93.10
2019-02-06T07:43:36.128Z,82.12
2019-02-06T07:49:38.426Z,93.07
2019-02-06T07:55:40.548Z,89.90
2019-02-06T08:01:42.730Z,93.85
2019-02-06T08:07:44.842Z,88.78
2019-02-06T08:13:47.411Z,88.52
2019-02-06T08:19:49.564Z,88.47
2019-02-06T08:25:51.949Z,89.10
2019-02-06T08:31:54.719Z,95.32
2019-02-06T08:37:58.356Z,88.85
2019-02-06T08:44:01.874Z,85.97
2019-02-06T08:50:06.503Z,86.20
2019-02-06T08:56:08.699Z,78.60
2019-02-06T09:02:10.918Z,74.50
2019-02-06T09:08:13.089Z,72.55
2019-02-06T09:14:16.808Z,73.05
2019-02-06T09:20:21.139Z,63.08
2019-02-06T09:26:23.910Z,64.47
2019-02-06T09:32:26.088Z,70.40
2019-02-06T09:38:28.348Z,70.15
2019-02-06T09:44:30.454Z,72.78
2019-02-06T09:50:34.548Z,75.65
2019-02-06T09:56:37.223Z,70.55
2019-02-06T10:02:39.337Z,74.12
2019-02-06T10:08:41.624Z,89.83
2019-02-06T10:14:45.856Z,82.05
2019-02-06T10:20:49.910Z,81.67
2019-02-06T10:26:52.023Z,81.78
2019-02-06T10:32:54.128Z,80.47
2019-02-06T10:38:56.331Z,71.77
2019-02-06T10:44:58.490Z,75.70
2019-02-06T10:51:00.670Z,76.95
2019-02-06T10:57:02.815Z,71.72
2019-02-06T11:03:05.046Z,81.30
2019-02-06T11:09:07.275Z,73.22
2019-02-06T11:15:09.924Z,72.15
2019-02-06T11:21:14.150Z,75.83
2019-02-06T11:27:16.597Z,74.77
2019-02-06T11:33:19.889Z,77.58
2019-02-06T11:39:23.439Z,71.57
2019-02-06T11:45:27.553Z,78.92
2019-02-06T11:51:29.877Z,72.58
2019-02-06T11:57:32.382Z,73.45
2019-02-06T12:03:36.728Z,74.37
2019-02-06T12:09:39.650Z,76.50
2019-02-06T12:15:43.922Z,78.80
2019-02-06T12:22:11.484Z,76.07
2019-02-06T12:28:15.543Z,82.08
2019-02-06T12:34:18.321Z,84.15
2019-02-06T12:40:22.092Z,82.47
2019-02-06T12:46:25.094Z,88.27
2019-02-06T12:52:27.393Z,83.58
2019-02-06T12:58:29.551Z,79.72
2019-02-06T13:04:31.798Z,85.85
2019-02-06T13:10:34.581Z,84.87
2019-02-06T13:16:36.786Z,84.80
2019-02-06T13:22:39.015Z,82.05
2019-02-06T13:28:41.131Z,74.72
2019-02-06T13:34:44.251Z,78.15
2019-02-06T13:40:46.509Z,75.03
2019-02-06T13:46:53.265Z,81.63
2019-02-06T13:52:52.839Z,77.45
2019-02-06T13:58:55.327Z,76.67
2019-02-06T14:05:00.297Z,79.30
2019-02-06T14:11:02.687Z,80.22
2019-02-06T14:17:06.010Z,78.02
2019-02-06T14:23:17.301Z,80.28
2019-02-06T14:29:55.979Z,74.70
2019-02-06T14:36:49.120Z,79.70
2019-02-06T14:43:12.709Z,70.92
2019-02-06T14:49:56.787Z,75.28
2019-02-06T14:56:37.017Z,72.32
2019-02-06T15:03:20.987Z,71.92
2019-02-06T15:10:02.926Z,74.58
2019-02-06T15:16:33.903Z,75.20
2019-02-06T15:23:16.306Z,72.15
2019-02-06T15:30:06.863Z,75.57
2019-02-06T15:36:35.519Z,72.55
2019-02-06T15:43:04.304Z,73.70
2019-02-06T15:49:21.942Z,73.10
2019-02-06T15:55:58.016Z,82.55
2019-02-06T16:02:26.406Z,83.55
2019-02-06T16:09:13.271Z,78.15
2019-02-06T16:15:45.223Z,76.22
2019-02-06T16:22:20.511Z,81.95
2019-02-06T16:28:39.061Z,80.10
2019-02-06T16:35:22.642Z,79.07
2019-02-06T16:42:05.915Z,71.17
2019-02-06T16:48:35.754Z,79.15
2019-02-06T17:02:04.408Z,82.35
2019-02-06T17:08:28.941Z,79.95
2019-02-06T17:15:08.788Z,76.47
2019-02-06T17:21:54.714Z,80.00
2019-02-06T17:28:35.115Z,88.25
2019-02-06T17:35:34.628Z,86.10
2019-02-06T17:41:47.359Z,81.80
2019-02-06T17:48:28.980Z,83.52
2019-02-06T17:55:19.742Z,74.00
2019-02-06T18:01:39.697Z,76.62
2019-02-06T18:07:41.923Z,78.87
2019-02-06T18:13:45.255Z,88.67
2019-02-06T18:19:47.426Z,83.70
2019-02-06T18:25:51.558Z,85.55
2019-02-06T18:31:55.049Z,86.63
2019-02-06T18:37:57.178Z,87.37
2019-02-06T18:43:59.874Z,80.87
2019-02-06T18:50:02.891Z,84.17
2019-02-06T18:56:05.283Z,86.90
2019-02-06T19:02:07.606Z,84.95
2019-02-06T19:08:10.115Z,96.60
2019-02-06T19:14:12.430Z,85.77
2019-02-06T19:20:15.504Z,99.52
2019-02-06T19:26:17.964Z,101.82
2019-02-06T19:32:20.145Z,94.05
2019-02-06T19:38:22.918Z,91.20
2019-02-06T19:44:25.194Z,93.30
2019-02-06T19:50:29.798Z,90.75
2019-02-06T19:56:33.202Z,93.03
2019-02-06T20:02:35.542Z,92.50
2019-02-06T20:08:37.931Z,100.45
2019-02-06T20:14:40.003Z,96.85
2019-02-06T20:20:46.995Z,90.92
2019-02-06T20:26:49.426Z,90.17
2019-02-06T20:32:52.657Z,82.05
2019-02-06T20:38:55.476Z,85.10
2019-02-06T20:44:59.443Z,81.53
2019-02-06T20:51:01.740Z,95.85
2019-02-06T20:57:12.382Z,100.53
2019-02-06T21:03:10.567Z,101.30
2019-02-06T21:09:16.064Z,105.35
2019-02-06T21:15:18.323Z,102.12
2019-02-06T21:21:21.177Z,103.45
2019-02-06T21:27:44.338Z,94.80
2019-02-06T21:33:46.959Z,97.62
2019-02-06T21:39:49.204Z,94.92
2019-02-06T21:45:52.520Z,93.90
2019-02-06T21:51:55.888Z,97.05
2019-02-06T21:57:59.828Z,89.55
2019-02-06T22:04:02.007Z,96.02
2019-02-06T22:10:05.232Z,96.47
2019-02-06T22:16:07.795Z,90.53
2019-02-06T22:22:11.196Z,85.25
2019-02-06T22:28:13.630Z,89.47
2019-02-06T22:34:15.803Z,88.70
2019-02-06T22:40:20.367Z,73.10
2019-02-06T22:46:23.759Z,67.10
2019-02-06T22:52:25.902Z,72.22
2019-02-06T22:58:38.269Z,80.35
2019-02-06T23:04:40.371Z,79.12
2019-02-06T23:10:42.495Z,79.67
2019-02-06T23:16:46.381Z,72.32
2019-02-06T23:22:48.492Z,60.63
2019-02-06T23:28:50.898Z,59.33
2019-02-06T23:34:54.509Z,60.65
2019-02-06T23:40:57.129Z,55.20
2019-02-06T23:46:59.229Z,58.05
2019-02-06T23:53:01.559Z,61.77
2019-02-06T23:59:03.860Z,59.27
